Scotstown, Canada
Current Conditions -  °F | °C
As of 4:39 PM on Wednesday 26 Nov 2014 (Local Time) from CYSC Reporting Station
Light Snow Light Snow  
Wind Chill: 22°   Ceiling: 2800
Heat Index: 28°   Visibility: 2.5mi
Dew Point: 27°   Wind: 6mph
Humidity: 93%   Direction: 90°E
Pressure: 30.1"   Gusts: NA
Location:  45.53°N, 71.28°W
Report Text: CYSC 262139Z AUTO 09005KT 2 1/2SM -SN OVC028 M02/M03 A3010 RMK PRESFR SLP205
Loading
Personal Weather Stations






























Interactive Weather Map New forecast layout! Learn more

10-Day Weather Forecast

Advertisements
Track Severe Weather on mobile